createdAt,value
2023-05-11T00:01:29.052Z,14.77
2023-05-11T00:03:57.171Z,14.74
2023-05-11T00:06:25.059Z,14.72
2023-05-11T00:08:53.194Z,14.70
2023-05-11T00:11:23.711Z,14.69
2023-05-11T00:13:51.823Z,14.65
2023-05-11T00:16:19.852Z,14.64
2023-05-11T00:18:49.007Z,14.62
2023-05-11T00:21:16.808Z,14.61
2023-05-11T00:23:44.651Z,14.60
2023-05-11T00:26:12.621Z,14.58
2023-05-11T00:28:42.083Z,14.59
2023-05-11T00:31:09.990Z,14.55
2023-05-11T00:33:37.953Z,14.55
2023-05-11T00:36:06.446Z,14.54
2023-05-11T00:38:34.439Z,14.53
2023-05-11T00:41:02.255Z,14.51
2023-05-11T00:43:30.051Z,14.49
2023-05-11T00:45:59.382Z,14.50
2023-05-11T00:48:27.273Z,14.47
2023-05-11T00:50:55.248Z,14.47
2023-05-11T00:53:23.115Z,14.46
2023-05-11T00:55:51.355Z,14.45
2023-05-11T00:58:19.435Z,14.45
2023-05-11T01:00:47.967Z,14.43
2023-05-11T01:03:18.178Z,14.44
2023-05-11T01:05:53.844Z,14.42
2023-05-11T01:08:29.428Z,14.39
2023-05-11T01:11:03.757Z,14.36
2023-05-11T01:13:35.050Z,14.33
2023-05-11T01:16:09.994Z,14.31
2023-05-11T01:18:44.750Z,14.29
2023-05-11T01:21:18.225Z,14.26
2023-05-11T01:24:18.680Z,14.19
2023-05-11T01:27:04.360Z,14.19
2023-05-11T01:29:47.909Z,14.15
2023-05-11T01:32:21.586Z,14.11
2023-05-11T01:34:54.349Z,14.06
2023-05-11T01:37:24.693Z,14.02
2023-05-11T01:39:56.000Z,13.98
2023-05-11T01:42:29.924Z,13.94
2023-05-11T01:44:59.267Z,13.91
2023-05-11T01:47:31.251Z,13.88
2023-05-11T01:50:02.070Z,13.81
2023-05-11T01:52:33.607Z,13.81
2023-05-11T01:55:04.903Z,13.79
2023-05-11T01:57:33.954Z,13.76
2023-05-11T02:00:02.549Z,13.73
2023-05-11T02:02:42.784Z,13.72
2023-05-11T02:05:12.065Z,13.70
2023-05-11T02:07:44.367Z,13.70
2023-05-11T02:10:14.172Z,13.67
2023-05-11T02:12:45.189Z,13.67
2023-05-11T02:15:14.476Z,13.65
2023-05-11T02:17:44.975Z,13.65
2023-05-11T02:20:14.671Z,13.63
2023-05-11T02:22:44.277Z,13.63
2023-05-11T02:25:13.781Z,13.61
2023-05-11T02:27:41.883Z,13.60
2023-05-11T02:30:11.557Z,13.60
2023-05-11T02:32:48.866Z,13.61
2023-05-11T02:35:21.751Z,13.58
2023-05-11T02:37:51.868Z,13.57
2023-05-11T02:40:24.558Z,13.59
2023-05-11T02:42:58.067Z,13.55
2023-05-11T02:45:31.763Z,13.57
2023-05-11T02:48:06.871Z,13.56
2023-05-11T02:50:39.007Z,13.56
2023-05-11T02:53:11.663Z,13.53
2023-05-11T02:55:40.622Z,13.53
2023-05-11T02:58:09.622Z,13.52
2023-05-11T03:00:40.182Z,13.52
2023-05-11T03:03:09.616Z,13.52
2023-05-11T03:05:37.874Z,13.50
2023-05-11T03:08:06.110Z,13.50
2023-05-11T03:10:35.117Z,13.48
2023-05-11T03:13:04.673Z,13.48
2023-05-11T03:15:34.082Z,13.49
2023-05-11T03:18:04.153Z,13.47
2023-05-11T03:20:36.683Z,13.49
2023-05-11T03:23:06.454Z,13.45
2023-05-11T03:25:34.900Z,13.44
2023-05-11T03:28:04.533Z,13.45
2023-05-11T03:30:35.715Z,13.45
2023-05-11T03:33:03.824Z,13.43
2023-05-11T03:35:35.932Z,13.45
2023-05-11T03:38:06.342Z,13.42
2023-05-11T03:40:35.264Z,13.43
2023-05-11T03:43:04.938Z,13.42
2023-05-11T03:45:34.362Z,13.41
2023-05-11T03:48:06.094Z,13.42
2023-05-11T03:50:35.953Z,13.41
2023-05-11T03:53:05.414Z,13.41
2023-05-11T03:55:33.511Z,13.40
2023-05-11T03:58:04.195Z,13.40
2023-05-11T04:00:32.569Z,13.40
2023-05-11T04:03:05.668Z,13.42
2023-05-11T04:05:35.267Z,13.41
2023-05-11T04:08:06.543Z,13.38
2023-05-11T04:10:34.425Z,13.39
2023-05-11T04:13:02.280Z,13.40
2023-05-11T04:15:30.227Z,13.41
2023-05-11T04:17:58.185Z,13.40
2023-05-11T04:20:26.117Z,13.41
2023-05-11T04:22:55.690Z,13.41
2023-05-11T04:25:24.126Z,13.40
2023-05-11T04:27:52.579Z,13.40
2023-05-11T04:30:21.589Z,13.40
2023-05-11T04:32:49.739Z,13.40
2023-05-11T04:35:18.475Z,13.40
2023-05-11T04:37:46.461Z,13.40
2023-05-11T04:40:16.067Z,13.41
2023-05-11T04:42:45.116Z,13.39
2023-05-11T04:45:17.286Z,13.38
2023-05-11T04:47:45.441Z,13.39
2023-05-11T04:50:14.316Z,13.38
2023-05-11T04:52:42.384Z,13.38
2023-05-11T04:55:11.300Z,13.39
2023-05-11T04:57:40.571Z,13.40
2023-05-11T05:00:09.932Z,13.39
2023-05-11T05:02:37.796Z,13.38
2023-05-11T05:05:06.238Z,13.38
2023-05-11T05:07:34.131Z,13.38
2023-05-11T05:10:03.926Z,13.38
2023-05-11T05:12:32.372Z,13.38
2023-05-11T05:15:01.547Z,13.40
2023-05-11T05:17:29.465Z,13.38
2023-05-11T05:19:57.998Z,13.38
2023-05-11T05:25:18.209Z,13.35
2023-05-11T05:27:46.961Z,13.35
2023-05-11T05:30:20.984Z,13.37
2023-05-11T05:32:49.837Z,13.37
2023-05-11T05:35:17.770Z,13.37
2023-05-11T05:37:45.743Z,13.37
2023-05-11T05:40:13.778Z,13.38
2023-05-11T05:42:46.960Z,13.37
2023-05-11T05:45:20.145Z,13.37
2023-05-11T05:47:49.139Z,13.38
2023-05-11T05:50:17.869Z,13.38
2023-05-11T05:52:46.354Z,13.40
2023-05-11T05:58:06.337Z,13.40
2023-05-11T06:00:36.260Z,13.44
2023-05-11T06:03:07.864Z,13.45
2023-05-11T06:05:37.213Z,13.49
2023-05-11T06:08:10.647Z,13.54
2023-05-11T06:10:40.230Z,13.58
2023-05-11T06:13:10.171Z,13.64
2023-05-11T06:15:43.404Z,13.73
2023-05-11T06:18:38.145Z,13.76
2023-05-11T06:21:08.081Z,13.85
2023-05-11T06:23:36.597Z,13.94
2023-05-11T06:26:04.546Z,14.02
2023-05-11T06:28:33.931Z,14.12
2023-05-11T06:31:06.856Z,14.23
2023-05-11T06:33:37.207Z,14.29
2023-05-11T06:36:10.862Z,14.40
2023-05-11T06:38:38.976Z,14.51
2023-05-11T06:41:11.238Z,14.60
2023-05-11T06:43:39.192Z,14.69
2023-05-11T06:46:20.240Z,14.78
2023-05-11T06:48:48.155Z,14.85
2023-05-11T06:51:16.202Z,14.90
2023-05-11T06:53:45.433Z,14.95
2023-05-11T06:56:13.222Z,14.98
2023-05-11T06:58:42.645Z,15.01
2023-05-11T07:01:11.963Z,15.03
2023-05-11T07:03:41.411Z,15.06
2023-05-11T07:06:09.446Z,15.06
2023-05-11T07:08:37.310Z,15.07
2023-05-11T07:11:05.168Z,15.07
2023-05-11T07:13:32.965Z,15.07
2023-05-11T07:16:00.821Z,15.08
2023-05-11T07:18:28.765Z,15.08
2023-05-11T07:20:57.998Z,15.08
2023-05-11T07:23:25.835Z,15.06
2023-05-11T07:25:57.356Z,15.07
2023-05-11T07:28:25.309Z,15.06
2023-05-11T07:30:53.112Z,15.07
2023-05-11T07:33:21.011Z,15.07
2023-05-11T07:35:48.797Z,15.06
2023-05-11T07:38:18.346Z,15.07
2023-05-11T07:40:46.253Z,15.03
2023-05-11T07:43:14.312Z,15.04
2023-05-11T07:45:42.086Z,15.04
2023-05-11T07:48:10.230Z,15.05
2023-05-11T07:50:38.093Z,15.04
2023-05-11T07:53:05.876Z,15.06
2023-05-11T07:55:35.185Z,15.10
2023-05-11T07:58:03.441Z,15.10
2023-05-11T08:00:31.376Z,15.13
2023-05-11T08:02:59.516Z,15.16
2023-05-11T08:05:27.649Z,15.18
2023-05-11T08:07:55.506Z,15.19
2023-05-11T08:10:23.341Z,15.19
2023-05-11T08:12:52.596Z,15.21
2023-05-11T08:15:21.172Z,15.19
2023-05-11T08:17:49.195Z,15.18
2023-05-11T08:20:17.132Z,15.18
2023-05-11T08:22:45.668Z,15.18
2023-05-11T08:25:13.909Z,15.16
2023-05-11T08:27:41.706Z,15.18
2023-05-11T08:30:12.287Z,15.20
2023-05-11T08:35:11.413Z,15.18
2023-05-11T08:37:39.284Z,15.18
2023-05-11T08:40:08.527Z,15.20
2023-05-11T08:42:38.594Z,15.21
2023-05-11T08:45:08.139Z,15.22
2023-05-11T08:47:37.994Z,15.23
2023-05-11T08:50:06.651Z,15.23
2023-05-11T08:52:34.664Z,15.22
2023-05-11T08:55:02.510Z,15.24
2023-05-11T08:57:32.889Z,15.26
2023-05-11T09:00:06.177Z,15.26
2023-05-11T09:02:35.801Z,15.25
2023-05-11T09:05:05.714Z,15.27
2023-05-11T09:07:37.780Z,15.28
2023-05-11T09:10:06.729Z,15.24
2023-05-11T09:12:34.590Z,15.25
2023-05-11T09:15:02.800Z,15.26
2023-05-11T09:17:30.893Z,15.26
2023-05-11T09:20:01.166Z,15.27
2023-05-11T09:22:35.462Z,15.26
2023-05-11T09:25:05.198Z,15.26
2023-05-11T09:27:33.186Z,15.25
2023-05-11T09:30:12.291Z,15.28
2023-05-11T09:32:49.708Z,15.28
2023-05-11T09:35:22.422Z,15.28
2023-05-11T09:38:06.040Z,15.29
2023-05-11T09:40:36.228Z,15.27
2023-05-11T09:43:04.513Z,15.26
2023-05-11T09:45:42.182Z,15.29
2023-05-11T09:48:25.163Z,15.28
2023-05-11T09:50:59.332Z,15.26
2023-05-11T09:53:37.736Z,15.28
2023-05-11T09:56:06.248Z,15.27
2023-05-11T09:58:49.980Z,15.31
2023-05-11T10:01:19.371Z,15.28
2023-05-11T10:03:49.167Z,15.29
2023-05-11T10:06:19.895Z,15.30
2023-05-11T10:08:50.086Z,15.32
2023-05-11T10:11:17.883Z,15.31
2023-05-11T10:13:46.592Z,15.33
2023-05-11T10:16:17.116Z,15.37
2023-05-11T10:18:46.870Z,15.38
2023-05-11T10:21:17.769Z,15.40
2023-05-11T10:23:46.184Z,15.41
2023-05-11T10:26:16.124Z,15.47
2023-05-11T10:28:44.406Z,15.49
2023-05-11T10:31:13.008Z,15.53
2023-05-11T10:33:42.852Z,15.58
2023-05-11T10:36:12.494Z,15.62
2023-05-11T10:38:40.487Z,15.66
2023-05-11T10:41:26.739Z,15.74
2023-05-11T10:44:20.294Z,15.80
2023-05-11T10:47:13.257Z,15.85
2023-05-11T10:49:56.144Z,15.60
2023-05-11T10:52:44.133Z,15.93
2023-05-11T10:55:20.960Z,16.03
2023-05-11T10:58:09.589Z,16.08
2023-05-11T11:01:19.784Z,16.11
2023-05-11T11:03:58.371Z,16.18
2023-05-11T11:06:29.356Z,16.22
2023-05-11T11:08:58.976Z,16.27
2023-05-11T11:11:30.760Z,16.34
2023-05-11T11:14:02.895Z,16.36
2023-05-11T11:16:31.501Z,16.38
2023-05-11T11:19:41.789Z,16.44
2023-05-11T11:22:43.168Z,16.49
2023-05-11T11:25:12.120Z,16.50
2023-05-11T11:27:59.324Z,16.57
2023-05-11T11:30:30.977Z,16.60
2023-05-11T11:33:32.880Z,16.62
2023-05-11T11:36:00.907Z,16.64
2023-05-11T11:38:29.573Z,16.67
2023-05-11T11:40:57.744Z,16.70
2023-05-11T11:43:28.438Z,16.75
2023-05-11T11:45:59.538Z,16.77
2023-05-11T11:48:33.692Z,16.80
2023-05-11T11:51:04.133Z,16.80
2023-05-11T11:54:06.418Z,16.75
2023-05-11T11:56:42.153Z,16.84
2023-05-11T11:59:14.020Z,16.84
2023-05-11T12:01:44.976Z,16.85
2023-05-11T12:04:40.946Z,16.85
2023-05-11T12:07:11.439Z,16.87
2023-05-11T12:09:40.940Z,16.89
2023-05-11T12:12:10.065Z,16.91
2023-05-11T12:14:37.969Z,16.92
2023-05-11T12:17:15.918Z,16.97
2023-05-11T12:19:45.617Z,16.99
2023-05-11T12:22:14.725Z,17.00
2023-05-11T12:24:43.941Z,17.02
2023-05-11T12:27:12.056Z,17.05
2023-05-11T12:29:41.354Z,17.08
2023-05-11T12:32:14.441Z,17.11
2023-05-11T12:34:42.343Z,17.11
2023-05-11T12:37:10.237Z,17.13
2023-05-11T12:39:39.576Z,17.16
2023-05-11T12:42:07.790Z,17.17
2023-05-11T12:44:36.326Z,17.18
2023-05-11T12:47:04.915Z,17.19
2023-05-11T12:49:34.388Z,17.22
2023-05-11T12:52:07.862Z,17.22
2023-05-11T12:54:38.088Z,17.24
2023-05-11T12:57:07.533Z,17.24
2023-05-11T12:59:37.483Z,17.25
2023-05-11T13:02:10.645Z,17.26
2023-05-11T13:04:41.464Z,17.27
2023-05-11T13:07:10.002Z,17.26
2023-05-11T13:09:38.575Z,17.25
2023-05-11T13:12:11.999Z,17.27
2023-05-11T13:14:40.461Z,17.23
2023-05-11T13:17:08.413Z,17.23
2023-05-11T13:19:37.605Z,17.22
2023-05-11T13:22:08.186Z,17.24
2023-05-11T13:24:36.084Z,17.23
2023-05-11T13:27:03.883Z,17.23
2023-05-11T13:29:31.718Z,17.23
2023-05-11T13:31:59.610Z,17.23
2023-05-11T13:34:27.577Z,17.23
2023-05-11T13:36:55.546Z,17.24
2023-05-11T13:39:24.790Z,17.26
2023-05-11T13:41:54.992Z,17.25
2023-05-11T13:44:23.686Z,17.25
2023-05-11T13:46:51.561Z,17.26
2023-05-11T13:49:19.978Z,17.28
2023-05-11T13:51:48.020Z,17.28
2023-05-11T13:54:15.969Z,17.29
2023-05-11T13:56:45.146Z,17.33
2023-05-11T13:59:13.146Z,17.34
2023-05-11T14:01:41.944Z,17.35
2023-05-11T14:04:09.817Z,17.39
2023-05-11T14:06:37.816Z,17.42
2023-05-11T14:09:05.941Z,17.47
2023-05-11T14:11:33.883Z,17.50
2023-05-11T14:14:03.223Z,17.55
2023-05-11T14:16:31.415Z,17.58
2023-05-11T14:18:59.284Z,17.60
2023-05-11T14:21:27.806Z,17.64
2023-05-11T14:24:10.530Z,17.66
2023-05-11T14:26:40.005Z,17.69
2023-05-11T14:29:09.243Z,17.73
2023-05-11T14:31:37.793Z,17.73
2023-05-11T14:34:06.262Z,17.75
2023-05-11T14:36:34.429Z,17.76
2023-05-11T14:39:02.717Z,17.77
2023-05-11T14:41:30.922Z,17.77
2023-05-11T14:43:58.688Z,17.79
2023-05-11T14:46:28.046Z,17.80
2023-05-11T14:48:55.916Z,17.77
2023-05-11T14:51:23.756Z,17.76
2023-05-11T14:53:52.184Z,17.74
2023-05-11T14:56:20.474Z,17.71
2023-05-11T14:58:48.290Z,17.69
2023-05-11T15:01:16.532Z,17.66
2023-05-11T15:03:46.007Z,17.64
2023-05-11T15:06:20.921Z,17.59
2023-05-11T15:08:49.269Z,17.54
2023-05-11T15:11:17.357Z,17.49
2023-05-11T15:13:47.390Z,17.45
2023-05-11T15:16:15.596Z,17.38
2023-05-11T15:18:44.839Z,17.31
2023-05-11T15:21:12.649Z,17.21
2023-05-11T15:23:40.764Z,17.11
2023-05-11T15:26:08.650Z,17.00
2023-05-11T15:28:36.502Z,16.89
2023-05-11T15:31:04.378Z,16.80
2023-05-11T15:33:32.831Z,16.71
2023-05-11T15:36:01.996Z,16.64
2023-05-11T15:38:30.982Z,16.54
2023-05-11T15:40:59.756Z,16.48
2023-05-11T15:43:27.537Z,16.40
2023-05-11T15:45:55.490Z,16.33
2023-05-11T15:48:23.521Z,16.27
2023-05-11T15:50:51.372Z,16.21
2023-05-11T15:53:20.689Z,16.18
2023-05-11T15:55:50.980Z,16.10
2023-05-11T15:58:19.067Z,16.02
2023-05-11T16:00:46.892Z,15.96
2023-05-11T16:03:15.002Z,15.93
2023-05-11T16:05:42.792Z,15.89
2023-05-11T16:08:10.770Z,15.86
2023-05-11T16:10:40.157Z,15.84
2023-05-11T16:13:09.393Z,15.80
2023-05-11T16:15:37.461Z,15.78
2023-05-11T16:18:05.774Z,15.77
2023-05-11T16:20:33.737Z,15.74
2023-05-11T16:23:01.682Z,15.72
2023-05-11T16:25:30.149Z,15.70
2023-05-11T16:27:59.678Z,15.70
2023-05-11T16:30:27.776Z,15.68
2023-05-11T16:32:55.946Z,15.66
2023-05-11T16:35:23.773Z,15.64
2023-05-11T16:37:51.796Z,15.61
2023-05-11T16:40:21.407Z,15.58
2023-05-11T16:42:49.698Z,15.55
2023-05-11T16:45:19.158Z,15.52
2023-05-11T16:47:47.156Z,15.47
2023-05-11T16:50:16.140Z,15.43
2023-05-11T16:52:44.609Z,15.39
2023-05-11T16:55:12.635Z,15.35
2023-05-11T16:57:40.493Z,15.31
2023-05-11T17:00:10.056Z,15.29
2023-05-11T17:02:39.791Z,15.25
2023-05-11T17:05:08.858Z,15.22
2023-05-11T17:07:36.738Z,15.19
2023-05-11T17:10:05.120Z,15.17
2023-05-11T17:12:35.576Z,15.16
2023-05-11T17:15:03.656Z,15.14
2023-05-11T17:17:31.476Z,15.13
2023-05-11T17:20:01.246Z,15.14
2023-05-11T17:22:29.730Z,15.13
2023-05-11T17:24:57.645Z,15.13
2023-05-11T17:27:26.010Z,15.14
2023-05-11T17:29:53.801Z,15.12
2023-05-11T17:32:21.832Z,15.12
2023-05-11T17:34:49.868Z,15.12
2023-05-11T17:37:30.490Z,15.14
2023-05-11T17:39:59.462Z,15.10
2023-05-11T17:42:27.383Z,15.11
2023-05-11T17:44:55.833Z,15.12
2023-05-11T17:47:24.094Z,15.10
2023-05-11T17:49:52.303Z,15.11
2023-05-11T17:52:21.583Z,15.13
2023-05-11T17:54:49.407Z,15.12
2023-05-11T17:57:17.261Z,15.12
2023-05-11T17:59:47.184Z,15.15
2023-05-11T18:02:15.096Z,15.13
2023-05-11T18:04:42.897Z,15.13
2023-05-11T18:07:10.722Z,15.13
2023-05-11T18:09:39.915Z,15.14
2023-05-11T18:12:09.502Z,15.12
2023-05-11T18:14:37.500Z,15.10
2023-05-11T18:17:05.634Z,15.10
2023-05-11T18:19:33.694Z,15.09
2023-05-11T18:22:01.581Z,15.09
2023-05-11T18:24:29.331Z,15.08
2023-05-11T18:26:58.622Z,15.09
2023-05-11T18:29:26.886Z,15.08
2023-05-11T18:31:54.757Z,15.07
2023-05-11T18:34:22.723Z,15.06
2023-05-11T18:36:50.800Z,15.05
2023-05-11T18:39:19.300Z,15.05
2023-05-11T18:41:47.245Z,15.05
2023-05-11T18:44:18.352Z,15.06
2023-05-11T18:46:46.383Z,15.04
2023-05-11T18:49:14.252Z,15.03
2023-05-11T18:51:42.306Z,15.03
2023-05-11T18:54:10.150Z,15.03
2023-05-11T18:56:38.058Z,15.04
2023-05-11T18:59:05.922Z,15.03
2023-05-11T19:01:47.099Z,15.05
2023-05-11T19:04:19.508Z,15.00
2023-05-11T19:06:47.542Z,15.01
2023-05-11T19:09:15.412Z,15.01
2023-05-11T19:11:43.791Z,15.00
2023-05-11T19:14:14.403Z,14.98
2023-05-11T19:16:43.875Z,15.00
2023-05-11T19:19:12.712Z,14.97
2023-05-11T19:21:42.431Z,14.96
2023-05-11T19:24:11.390Z,14.95
2023-05-11T19:26:40.396Z,14.95
2023-05-11T19:29:09.282Z,14.93
2023-05-11T19:31:37.439Z,14.92
2023-05-11T19:34:07.060Z,14.93
2023-05-11T19:36:34.956Z,14.90
2023-05-11T19:39:04.278Z,14.89
2023-05-11T19:41:33.233Z,14.89
2023-05-11T19:44:01.596Z,14.88
2023-05-11T19:46:29.696Z,14.85
2023-05-11T19:48:57.707Z,14.85
2023-05-11T19:51:26.891Z,14.86
2023-05-11T19:53:54.867Z,14.84
2023-05-11T19:56:22.747Z,14.82
2023-05-11T19:58:50.653Z,14.82
2023-05-11T20:01:18.578Z,14.81
2023-05-11T20:03:46.589Z,14.80
2023-05-11T20:06:14.486Z,14.81
2023-05-11T20:08:44.450Z,14.82
2023-05-11T20:11:13.734Z,14.78
2023-05-11T20:13:42.482Z,14.77
2023-05-11T20:16:10.759Z,14.76
2023-05-11T20:18:38.698Z,14.76
2023-05-11T20:21:06.988Z,14.75
2023-05-11T20:23:37.190Z,14.75
2023-05-11T20:26:09.839Z,14.76
2023-05-11T20:28:39.460Z,14.71
2023-05-11T20:31:09.464Z,14.72
2023-05-11T20:36:09.418Z,14.72
2023-05-11T20:38:37.268Z,14.71
2023-05-11T20:41:05.199Z,14.70
2023-05-11T20:43:34.386Z,14.72
2023-05-11T20:46:03.390Z,14.69
2023-05-11T20:48:40.046Z,14.67
2023-05-11T20:51:09.246Z,14.66
2023-05-11T20:53:37.009Z,14.67
2023-05-11T20:56:05.014Z,14.66
2023-05-11T20:58:34.220Z,14.67
2023-05-11T21:01:02.142Z,14.64
2023-05-11T21:03:30.153Z,14.64
2023-05-11T21:05:58.025Z,14.64
2023-05-11T21:08:25.866Z,14.63
2023-05-11T21:10:53.773Z,14.63
2023-05-11T21:13:21.571Z,14.63
2023-05-11T21:15:50.830Z,14.65
2023-05-11T21:18:18.972Z,14.63
2023-05-11T21:20:47.263Z,14.62
2023-05-11T21:23:15.256Z,14.62
2023-05-11T21:25:43.165Z,14.61
2023-05-11T21:28:11.179Z,14.62
2023-05-11T21:30:39.274Z,14.60
2023-05-11T21:33:08.619Z,14.61
2023-05-11T21:35:36.844Z,14.59
2023-05-11T21:38:04.664Z,14.59
2023-05-11T21:40:32.574Z,14.58
2023-05-11T21:43:00.324Z,14.58
2023-05-11T21:45:28.090Z,14.58
2023-05-11T21:47:55.923Z,14.58
2023-05-11T21:50:25.245Z,14.58
2023-05-11T21:52:53.007Z,14.56
2023-05-11T21:55:20.947Z,14.53
2023-05-11T21:57:49.153Z,14.51
2023-05-11T22:00:19.301Z,14.49
2023-05-11T22:02:47.448Z,14.46
2023-05-11T22:05:15.517Z,14.45
2023-05-11T22:07:44.934Z,14.45
2023-05-11T22:10:13.247Z,14.42
2023-05-11T22:12:41.093Z,14.39
2023-05-11T22:15:09.893Z,14.39
2023-05-11T22:17:38.105Z,14.37
2023-05-11T22:20:07.407Z,14.37
2023-05-11T22:22:36.636Z,14.35
2023-05-11T22:25:06.453Z,14.34
2023-05-11T22:27:34.241Z,14.32
2023-05-11T22:30:02.447Z,14.31
2023-05-11T22:32:31.522Z,14.29
2023-05-11T22:35:00.240Z,14.28
2023-05-11T22:37:28.675Z,14.27
2023-05-11T22:39:56.549Z,14.24
2023-05-11T22:42:25.911Z,14.25
2023-05-11T22:44:53.758Z,14.21
2023-05-11T22:47:21.502Z,14.20
2023-05-11T22:49:49.266Z,14.18
2023-05-11T22:52:17.527Z,14.17
2023-05-11T22:54:45.308Z,14.16
2023-05-11T22:57:14.769Z,14.15
2023-05-11T22:59:46.606Z,14.16
2023-05-11T23:02:14.532Z,14.12
2023-05-11T23:04:42.442Z,14.12
2023-05-11T23:07:13.000Z,14.12
2023-05-11T23:09:40.903Z,14.11
2023-05-11T23:12:09.374Z,14.09
2023-05-11T23:14:37.378Z,14.09
2023-05-11T23:17:06.627Z,14.10
2023-05-11T23:19:35.049Z,14.08
2023-05-11T23:22:02.952Z,14.08
2023-05-11T23:24:31.129Z,14.07
2023-05-11T23:26:58.934Z,14.07
2023-05-11T23:29:27.128Z,14.06
2023-05-11T23:31:55.916Z,14.05
2023-05-11T23:34:25.116Z,14.07
2023-05-11T23:36:53.202Z,14.05
2023-05-11T23:39:24.171Z,14.05
2023-05-11T23:41:52.524Z,14.04
2023-05-11T23:44:20.461Z,14.04
2023-05-11T23:50:35.565Z,14.02
2023-05-11T23:54:11.183Z,14.02
